createdAt,value
2018-12-20T00:00:43.349Z,3.12
2018-12-20T00:03:15.785Z,3.50
2018-12-20T00:05:50.292Z,4.15
2018-12-20T00:08:25.231Z,4.55
2018-12-20T00:10:55.364Z,4.08
2018-12-20T00:13:40.495Z,4.00
2018-12-20T00:16:12.561Z,4.22
2018-12-20T00:18:44.469Z,4.37
2018-12-20T00:21:16.627Z,4.75
2018-12-20T00:23:48.690Z,5.25
2018-12-20T00:26:18.131Z,5.03
2018-12-20T00:31:55.298Z,5.17
2018-12-20T00:34:27.047Z,5.17
2018-12-20T00:36:59.114Z,6.00
2018-12-20T00:39:31.614Z,5.47
2018-12-20T00:42:06.184Z,6.00
2018-12-20T00:44:37.736Z,5.45
2018-12-20T00:53:08.624Z,5.60
2018-12-20T00:55:40.505Z,5.95
2018-12-20T00:58:11.837Z,5.75
2018-12-20T01:00:43.996Z,5.97
2018-12-20T01:03:15.487Z,5.40
2018-12-20T01:05:47.525Z,5.67
2018-12-20T01:08:19.057Z,5.80
2018-12-20T01:10:51.274Z,5.53
2018-12-20T01:13:23.526Z,5.67
2018-12-20T01:15:55.481Z,5.50
2018-12-20T01:18:27.621Z,6.25
2018-12-20T01:20:59.673Z,5.65
2018-12-20T01:29:31.810Z,5.70
2018-12-20T01:32:03.817Z,6.00
2018-12-20T01:34:35.922Z,5.80
2018-12-20T01:37:07.290Z,5.58
2018-12-20T01:39:42.244Z,5.17
2018-12-20T01:42:13.853Z,5.70
2018-12-20T01:44:53.352Z,5.53
2018-12-20T01:47:20.042Z,5.10
2018-12-20T01:49:50.298Z,4.37
2018-12-20T01:52:22.608Z,5.15
2018-12-20T01:54:57.998Z,4.60
2018-12-20T01:57:32.551Z,4.37
2018-12-20T02:00:08.422Z,4.37
2018-12-20T02:02:39.892Z,4.80
2018-12-20T02:05:10.062Z,5.05
2018-12-20T02:07:41.470Z,4.20
2018-12-20T02:10:16.164Z,4.10
2018-12-20T02:12:50.071Z,5.33
2018-12-20T02:15:18.778Z,5.00
2018-12-20T02:17:52.578Z,5.65
2018-12-20T02:20:24.806Z,6.62
2018-12-20T02:22:59.228Z,6.33
2018-12-20T02:25:30.910Z,5.90
2018-12-20T02:28:02.716Z,6.30
2018-12-20T02:30:34.967Z,7.25
2018-12-20T02:33:07.329Z,6.83
2018-12-20T02:35:42.193Z,7.22
2018-12-20T02:38:14.328Z,6.83
2018-12-20T02:40:46.522Z,6.87
2018-12-20T02:43:33.460Z,6.90
2018-12-20T02:46:05.435Z,7.25
2018-12-20T02:48:37.591Z,7.00
2018-12-20T02:51:09.531Z,6.83
2018-12-20T02:53:41.551Z,6.55
2018-12-20T02:56:13.628Z,6.12
2018-12-20T02:58:48.006Z,6.85
2018-12-20T03:06:34.925Z,7.28
2018-12-20T03:09:08.584Z,6.35
2018-12-20T03:11:42.350Z,6.25
2018-12-20T03:14:14.062Z,6.30
2018-12-20T03:16:46.681Z,7.00
2018-12-20T03:19:18.629Z,6.75
2018-12-20T03:27:48.266Z,6.75
2018-12-20T03:30:20.740Z,6.67
2018-12-20T03:32:53.522Z,7.95
2018-12-20T03:35:25.187Z,7.00
2018-12-20T03:37:57.374Z,6.35
2018-12-20T03:40:29.851Z,6.70
2018-12-20T03:43:01.962Z,7.05
2018-12-20T03:45:33.811Z,6.85
2018-12-20T03:48:05.963Z,6.83
2018-12-20T03:50:38.792Z,6.50
2018-12-20T03:53:10.497Z,5.50
2018-12-20T03:55:49.194Z,6.08
2018-12-20T03:58:21.753Z,6.17
2018-12-20T04:00:53.395Z,6.20
2018-12-20T04:03:40.683Z,5.80
2018-12-20T04:06:14.614Z,5.55
2018-12-20T04:08:42.945Z,7.03
2018-12-20T04:11:14.354Z,6.08
2018-12-20T04:19:51.883Z,6.22
2018-12-20T04:22:23.950Z,6.53
2018-12-20T04:24:55.809Z,7.08
2018-12-20T04:27:28.087Z,6.08
2018-12-20T04:29:59.991Z,5.92
2018-12-20T04:32:32.186Z,7.05
2018-12-20T04:35:03.790Z,6.33
2018-12-20T04:37:35.944Z,5.80
2018-12-20T04:43:06.463Z,6.00
2018-12-20T04:48:33.970Z,5.58
2018-12-20T04:51:08.646Z,5.55
2018-12-20T04:53:38.088Z,4.85
2018-12-20T04:56:09.729Z,5.72
2018-12-20T04:58:41.760Z,5.30
2018-12-20T05:01:10.331Z,4.87
2018-12-20T05:03:42.436Z,4.12
2018-12-20T05:06:14.747Z,4.35
2018-12-20T05:08:46.334Z,4.45
2018-12-20T05:11:18.421Z,4.42
2018-12-20T05:13:48.018Z,3.65
2018-12-20T05:16:19.980Z,4.47
2018-12-20T05:18:51.896Z,3.62
2018-12-20T05:21:25.687Z,3.85
2018-12-20T05:23:57.464Z,3.22
2018-12-20T05:26:25.759Z,2.90
2018-12-20T05:28:59.771Z,4.20
2018-12-20T05:31:31.200Z,2.92
2018-12-20T05:34:03.852Z,3.98
2018-12-20T05:36:32.518Z,3.65
2018-12-20T05:39:01.721Z,3.47
2018-12-20T05:41:30.467Z,2.85
2018-12-20T05:46:54.911Z,3.12
2018-12-20T05:52:19.502Z,3.37
2018-12-20T05:54:47.794Z,2.92
2018-12-20T05:57:19.084Z,3.65
2018-12-20T05:59:47.751Z,3.17
2018-12-20T06:02:34.743Z,3.65
2018-12-20T06:05:04.561Z,3.60
2018-12-20T06:07:33.157Z,3.10
2018-12-20T06:10:01.576Z,3.20
2018-12-20T06:12:49.415Z,3.00
2018-12-20T06:15:17.998Z,3.47
2018-12-20T06:17:48.053Z,3.10
2018-12-20T06:20:16.498Z,3.33
2018-12-20T06:22:48.790Z,3.95
2018-12-20T06:25:17.301Z,3.85
2018-12-20T06:27:45.620Z,3.87
2018-12-20T06:30:17.489Z,3.90
2018-12-20T06:32:49.350Z,3.90
2018-12-20T06:35:19.095Z,3.50
2018-12-20T06:37:49.189Z,3.25
2018-12-20T06:40:21.225Z,3.80
2018-12-20T06:42:53.240Z,4.00
2018-12-20T06:45:25.477Z,4.47
2018-12-20T06:47:56.987Z,3.92
2018-12-20T06:59:33.497Z,4.15
2018-12-20T07:05:05.082Z,3.65
2018-12-20T07:07:34.945Z,3.95
2018-12-20T07:10:08.600Z,4.03
2018-12-20T07:12:42.969Z,3.52
2018-12-20T07:15:14.708Z,3.37
2018-12-20T07:17:46.092Z,3.90
2018-12-20T07:20:18.431Z,3.47
2018-12-20T07:22:50.653Z,3.80
2018-12-20T07:25:25.188Z,3.72
2018-12-20T07:30:52.829Z,3.65
2018-12-20T07:33:24.220Z,3.75
2018-12-20T07:35:58.816Z,3.37
2018-12-20T07:38:30.737Z,3.85
2018-12-20T07:41:00.630Z,3.42
2018-12-20T07:43:34.177Z,3.33
2018-12-20T07:46:05.934Z,2.98
2018-12-20T07:48:42.566Z,3.12
2018-12-20T07:51:14.100Z,3.40
2018-12-20T07:53:47.729Z,4.03
2018-12-20T07:56:19.255Z,3.75
2018-12-20T07:58:53.096Z,4.22
2018-12-20T08:01:27.157Z,3.72
2018-12-20T08:04:07.737Z,4.85
2018-12-20T08:06:39.095Z,4.50
2018-12-20T08:09:10.424Z,3.75
2018-12-20T08:11:42.540Z,3.02
2018-12-20T08:14:14.440Z,3.00
2018-12-20T08:16:48.952Z,3.08
2018-12-20T08:19:21.769Z,2.85
2018-12-20T08:21:53.750Z,3.17
2018-12-20T08:24:25.614Z,3.27
2018-12-20T08:27:00.236Z,3.65
2018-12-20T08:29:34.405Z,2.58
2018-12-20T08:32:06.037Z,3.00
2018-12-20T08:34:40.817Z,3.40
2018-12-20T08:37:12.358Z,2.60
2018-12-20T08:39:47.356Z,2.80
2018-12-20T08:42:18.678Z,3.10
2018-12-20T08:44:50.889Z,2.40
2018-12-20T08:47:24.570Z,3.00
2018-12-20T08:49:54.078Z,2.95
2018-12-20T08:52:26.206Z,3.20
2018-12-20T08:54:58.444Z,2.65
2018-12-20T08:57:30.589Z,2.70
2018-12-20T09:00:06.051Z,2.70
2018-12-20T09:02:37.745Z,2.60
2018-12-20T09:05:11.259Z,2.90
2018-12-20T09:07:42.965Z,2.60
2018-12-20T09:10:16.793Z,2.67
2018-12-20T09:12:57.252Z,3.75
2018-12-20T09:18:00.446Z,2.85
2018-12-20T09:20:32.830Z,3.08
2018-12-20T09:23:04.377Z,2.30
2018-12-20T09:25:34.046Z,2.72
2018-12-20T09:28:06.262Z,2.52
2018-12-20T09:30:38.491Z,2.12
2018-12-20T09:33:12.952Z,1.92
2018-12-20T09:35:44.566Z,1.90
2018-12-20T09:38:14.729Z,1.57
2018-12-20T09:40:50.479Z,1.75
2018-12-20T09:43:18.804Z,1.60
2018-12-20T09:45:50.962Z,1.62
2018-12-20T09:48:22.942Z,1.60
2018-12-20T09:50:54.285Z,1.98
2018-12-20T09:53:29.884Z,1.30
2018-12-20T09:56:03.789Z,2.08
2018-12-20T09:58:35.341Z,1.95
2018-12-20T10:04:08.463Z,2.42
2018-12-20T10:06:38.365Z,1.40
2018-12-20T10:09:10.522Z,2.02
2018-12-20T10:11:40.449Z,1.52
2018-12-20T10:14:23.832Z,1.65
2018-12-20T10:16:55.477Z,1.70
2018-12-20T10:19:29.232Z,1.65
2018-12-20T10:21:58.669Z,1.80
2018-12-20T10:24:30.738Z,1.52
2018-12-20T10:27:11.856Z,1.65
2018-12-20T10:29:44.066Z,2.00
2018-12-20T10:32:18.418Z,1.80
2018-12-20T10:34:48.257Z,1.72
2018-12-20T10:37:20.425Z,1.67
2018-12-20T10:39:52.715Z,2.05
2018-12-20T10:42:25.057Z,2.42
2018-12-20T10:44:57.021Z,1.75
2018-12-20T10:47:29.539Z,2.10
2018-12-20T10:49:58.906Z,2.98
2018-12-20T10:52:30.962Z,2.00
2018-12-20T10:55:05.565Z,1.82
2018-12-20T10:57:37.674Z,1.95
2018-12-20T11:00:08.812Z,1.90
2018-12-20T11:06:44.249Z,1.67
2018-12-20T11:09:21.610Z,2.70
2018-12-20T11:11:58.653Z,1.70
2018-12-20T11:14:30.234Z,1.65
2018-12-20T11:19:53.261Z,2.02
2018-12-20T11:22:21.723Z,2.65
2018-12-20T11:24:53.937Z,2.40
2018-12-20T11:30:18.438Z,2.30
2018-12-20T11:32:48.163Z,2.10
2018-12-20T11:35:16.538Z,1.90
2018-12-20T11:37:45.024Z,2.02
2018-12-20T11:40:25.335Z,1.77
2018-12-20T11:42:53.573Z,1.80
2018-12-20T11:48:16.225Z,2.27
2018-12-20T11:50:45.998Z,2.65
2018-12-20T11:53:20.531Z,1.90
2018-12-20T11:55:50.281Z,1.90
2018-12-20T11:58:20.537Z,2.30
2018-12-20T12:00:52.570Z,2.37
2018-12-20T12:06:20.600Z,1.65
2018-12-20T12:08:52.825Z,1.90
2018-12-20T12:11:24.681Z,2.15
2018-12-20T12:13:56.741Z,1.98
2018-12-20T12:16:28.844Z,2.05
2018-12-20T12:19:00.309Z,1.80
2018-12-20T12:21:34.837Z,1.77
2018-12-20T12:24:09.145Z,3.27
2018-12-20T12:26:37.549Z,2.67
2018-12-20T12:29:06.116Z,3.02
2018-12-20T12:31:40.433Z,2.00
2018-12-20T12:37:07.257Z,1.90
2018-12-20T12:39:39.368Z,1.90
2018-12-20T12:42:11.493Z,2.22
2018-12-20T12:44:41.723Z,2.02
2018-12-20T12:47:13.756Z,2.00
2018-12-20T12:49:45.416Z,2.00
2018-12-20T12:52:17.549Z,1.98
2018-12-20T12:54:49.741Z,1.90
2018-12-20T12:57:22.418Z,1.45
2018-12-20T12:59:54.822Z,1.80
2018-12-20T13:02:28.701Z,1.90
2018-12-20T13:08:05.402Z,1.60
2018-12-20T13:10:35.008Z,2.17
2018-12-20T13:13:03.582Z,2.08
2018-12-20T13:15:31.969Z,1.52
2018-12-20T13:18:13.519Z,1.35
2018-12-20T13:20:35.364Z,1.60
2018-12-20T13:23:03.764Z,1.60
2018-12-20T13:25:32.143Z,1.50
2018-12-20T13:33:52.290Z,1.90
2018-12-20T13:36:20.700Z,2.00
2018-12-20T13:38:49.246Z,1.65
2018-12-20T13:41:17.820Z,1.98
2018-12-20T13:43:46.501Z,2.20
2018-12-20T13:46:15.106Z,1.50
2018-12-20T13:48:46.114Z,3.27
2018-12-20T13:51:14.284Z,1.87
2018-12-20T13:53:42.707Z,2.20
2018-12-20T13:56:26.131Z,2.60
2018-12-20T13:58:54.380Z,2.02
2018-12-20T14:01:22.604Z,2.02
2018-12-20T14:04:03.746Z,2.20
2018-12-20T14:06:32.020Z,1.85
2018-12-20T14:09:07.692Z,2.10
2018-12-20T14:11:38.029Z,2.20
2018-12-20T14:14:06.287Z,1.80
2018-12-20T14:16:46.638Z,1.90
2018-12-20T14:19:21.020Z,2.27
2018-12-20T14:21:49.491Z,2.10
2018-12-20T14:24:35.829Z,2.12
2018-12-20T14:29:33.522Z,2.60
2018-12-20T14:38:11.479Z,2.10
2018-12-20T14:43:36.111Z,2.70
2018-12-20T14:46:04.532Z,2.80
2018-12-20T14:48:44.833Z,2.62
2018-12-20T14:51:33.921Z,3.62
2018-12-20T14:54:05.180Z,2.30
2018-12-20T14:56:33.341Z,2.50
2018-12-20T15:01:58.122Z,2.55
2018-12-20T15:04:26.672Z,2.85
2018-12-20T15:06:55.006Z,2.80
2018-12-20T15:09:29.022Z,2.80
2018-12-20T15:11:57.232Z,2.60
2018-12-20T15:14:28.799Z,3.10
2018-12-20T15:16:56.976Z,2.98
2018-12-20T15:19:25.406Z,3.62
2018-12-20T15:21:53.694Z,2.83
2018-12-20T15:24:21.942Z,2.60
2018-12-20T15:26:50.301Z,2.95
2018-12-20T15:29:18.504Z,3.30
2018-12-20T15:31:53.370Z,2.60
2018-12-20T15:34:16.914Z,2.70
2018-12-20T15:36:45.090Z,2.35
2018-12-20T15:39:14.184Z,2.17
2018-12-20T15:41:42.618Z,2.30
2018-12-20T15:44:10.809Z,2.30
2018-12-20T15:46:38.964Z,2.35
2018-12-20T15:49:07.225Z,1.92
2018-12-20T15:51:35.498Z,2.12
2018-12-20T15:54:03.853Z,2.50
2018-12-20T15:56:32.057Z,2.35
2018-12-20T15:59:00.245Z,2.90
2018-12-20T16:01:28.644Z,4.05
2018-12-20T16:03:56.888Z,2.55
2018-12-20T16:06:25.099Z,2.40
2018-12-20T16:08:53.269Z,2.30
2018-12-20T16:11:21.448Z,2.45
2018-12-20T16:13:49.712Z,2.40
2018-12-20T16:16:17.914Z,2.60
2018-12-20T16:18:46.094Z,2.25
2018-12-20T16:21:14.818Z,2.15
2018-12-20T16:23:46.660Z,2.50
2018-12-20T16:26:14.850Z,2.33
2018-12-20T16:28:43.120Z,2.75
2018-12-20T16:31:11.332Z,3.33
2018-12-20T16:33:39.523Z,2.50
2018-12-20T16:36:07.810Z,2.47
2018-12-20T16:38:36.195Z,2.30
2018-12-20T16:41:04.476Z,2.47
2018-12-20T16:43:32.636Z,2.50
2018-12-20T16:46:01.676Z,2.47
2018-12-20T16:48:30.814Z,2.00
2018-12-20T16:50:59.018Z,2.30
2018-12-20T16:53:27.299Z,2.27
2018-12-20T16:55:55.590Z,2.30
2018-12-20T16:58:23.801Z,2.20
2018-12-20T17:00:52.102Z,2.30
2018-12-20T17:03:20.450Z,2.92
2018-12-20T17:05:48.631Z,2.50
2018-12-20T17:08:16.880Z,2.15
2018-12-20T17:10:45.503Z,3.25
2018-12-20T17:13:13.788Z,2.45
2018-12-20T17:15:42.063Z,2.15
2018-12-20T17:18:10.330Z,2.37
2018-12-20T17:20:38.535Z,2.00
2018-12-20T17:23:06.753Z,2.00
2018-12-20T17:25:35.038Z,2.30
2018-12-20T17:28:03.653Z,2.45
2018-12-20T17:30:31.866Z,2.72
2018-12-20T17:33:00.293Z,2.02
2018-12-20T17:35:29.315Z,1.77
2018-12-20T17:37:57.490Z,1.92
2018-12-20T17:40:25.788Z,1.35
2018-12-20T17:42:57.501Z,2.22
2018-12-20T17:45:29.664Z,2.75
2018-12-20T17:47:59.786Z,2.60
2018-12-20T17:50:31.759Z,1.87
2018-12-20T17:53:03.713Z,2.20
2018-12-20T18:02:08.082Z,2.10
2018-12-20T18:04:40.266Z,1.98
2018-12-20T18:07:10.486Z,2.20
2018-12-20T18:09:40.594Z,2.00
2018-12-20T18:12:13.097Z,1.90
2018-12-20T18:14:44.652Z,2.00
2018-12-20T18:17:19.022Z,2.00
2018-12-20T18:22:45.577Z,2.30
2018-12-20T18:25:16.971Z,2.00
2018-12-20T18:28:01.903Z,2.02
2018-12-20T18:30:33.505Z,2.55
2018-12-20T18:36:02.621Z,1.87
2018-12-20T18:38:53.484Z,2.45
2018-12-20T18:41:25.136Z,2.47
2018-12-20T18:49:50.146Z,1.72
2018-12-20T18:52:40.714Z,2.62
2018-12-20T19:01:07.082Z,2.67
2018-12-20T19:03:41.188Z,2.27
2018-12-20T19:06:15.212Z,2.33
2018-12-20T19:08:46.668Z,2.00
2018-12-20T19:11:33.550Z,2.10
2018-12-20T19:14:20.075Z,4.25
2018-12-20T19:19:56.674Z,2.98
2018-12-20T19:25:24.244Z,2.35
2018-12-20T19:30:52.161Z,2.60
2018-12-20T19:33:24.013Z,2.22
2018-12-20T19:35:55.759Z,2.55
2018-12-20T19:38:28.056Z,2.08
2018-12-20T19:41:02.658Z,2.27
2018-12-20T19:43:31.313Z,2.30
2018-12-20T19:45:59.768Z,1.80
2018-12-20T19:48:30.998Z,2.15
2018-12-20T19:53:58.564Z,2.25
2018-12-20T19:56:26.805Z,1.75
2018-12-20T19:58:54.997Z,2.25
2018-12-20T20:01:23.486Z,2.00
2018-12-20T20:03:51.765Z,1.82
2018-12-20T20:06:20.160Z,1.90
2018-12-20T20:08:48.421Z,1.80
2018-12-20T20:11:16.597Z,2.60
2018-12-20T20:13:44.791Z,2.00
2018-12-20T20:16:12.984Z,2.33
2018-12-20T20:18:41.186Z,3.08
2018-12-20T20:21:09.484Z,1.98
2018-12-20T20:23:37.665Z,1.70
2018-12-20T20:26:05.896Z,2.00
2018-12-20T20:28:34.070Z,2.30
2018-12-20T20:31:02.633Z,2.00
2018-12-20T20:33:30.905Z,2.08
2018-12-20T20:35:59.064Z,2.22
2018-12-20T20:38:27.464Z,2.10
2018-12-20T20:40:56.739Z,1.95
2018-12-20T20:43:24.920Z,2.00
2018-12-20T20:45:53.226Z,2.50
2018-12-20T20:48:21.380Z,2.02
2018-12-20T20:50:49.573Z,1.95
2018-12-20T20:53:18.053Z,1.62
2018-12-20T20:55:46.236Z,1.90
2018-12-20T20:58:14.408Z,2.20
2018-12-20T21:00:42.813Z,2.62
2018-12-20T21:03:11.008Z,2.22
2018-12-20T21:05:39.260Z,2.30
2018-12-20T21:08:07.522Z,2.02
2018-12-20T21:10:35.715Z,2.05
2018-12-20T21:13:03.906Z,1.60
2018-12-20T21:15:32.092Z,2.17
2018-12-20T21:18:00.289Z,3.00
2018-12-20T21:20:30.901Z,2.27
2018-12-20T21:22:58.708Z,2.12
2018-12-20T21:25:26.891Z,2.15
2018-12-20T21:27:55.068Z,2.27
2018-12-20T21:30:23.236Z,2.47
2018-12-20T21:32:51.416Z,2.30
2018-12-20T21:35:19.672Z,2.00
2018-12-20T21:37:47.868Z,2.33
2018-12-20T21:40:16.293Z,2.15
2018-12-20T21:42:44.508Z,2.08
2018-12-20T21:45:12.843Z,1.90
2018-12-20T21:47:41.217Z,2.15
2018-12-20T21:50:10.877Z,2.35
2018-12-20T21:52:39.179Z,2.55
2018-12-20T21:55:08.877Z,4.58
2018-12-20T21:57:38.346Z,1.95
2018-12-20T22:00:09.241Z,1.85
2018-12-20T22:02:38.145Z,2.05
2018-12-20T22:05:08.475Z,2.30
2018-12-20T22:10:23.214Z,2.15
2018-12-20T22:12:51.644Z,1.87
2018-12-20T22:15:19.849Z,1.82
2018-12-20T22:17:48.019Z,1.95
2018-12-20T22:20:16.235Z,2.30
2018-12-20T22:22:44.845Z,1.65
2018-12-20T22:25:13.053Z,2.08
2018-12-20T22:27:41.263Z,2.17
2018-12-20T22:30:10.246Z,1.57
2018-12-20T22:32:39.059Z,2.02
2018-12-20T22:35:08.489Z,2.00
2018-12-20T22:37:36.692Z,1.90
2018-12-20T22:40:06.977Z,1.95
2018-12-20T22:42:35.388Z,2.52
2018-12-20T22:45:06.675Z,1.90
2018-12-20T22:47:34.881Z,2.15
2018-12-20T22:50:04.333Z,2.15
2018-12-20T22:52:32.516Z,2.17
2018-12-20T22:55:02.330Z,2.30
2018-12-20T22:57:30.635Z,1.85
2018-12-20T22:59:58.821Z,2.22
2018-12-20T23:02:27.008Z,2.60
2018-12-20T23:04:55.387Z,1.87
2018-12-20T23:07:23.661Z,2.20
2018-12-20T23:09:52.171Z,1.80
2018-12-20T23:12:22.335Z,1.90
2018-12-20T23:14:50.700Z,1.47
2018-12-20T23:17:19.003Z,2.60
2018-12-20T23:19:47.397Z,2.30
2018-12-20T23:22:15.868Z,1.85
2018-12-20T23:24:44.136Z,2.27
2018-12-20T23:27:12.336Z,2.35
2018-12-20T23:29:40.515Z,2.20
2018-12-20T23:32:08.856Z,2.20
2018-12-20T23:34:38.080Z,2.00
2018-12-20T23:37:06.277Z,1.95
2018-12-20T23:39:34.474Z,2.27
2018-12-20T23:42:03.177Z,2.20
2018-12-20T23:44:31.610Z,1.62
2018-12-20T23:46:59.885Z,1.60
2018-12-20T23:49:28.277Z,1.80
2018-12-20T23:51:56.453Z,2.12
2018-12-20T23:54:24.639Z,1.80
2018-12-20T23:56:52.801Z,2.02
2018-12-20T23:59:21.056Z,2.10
